Time;durP1;ratioP1;P1;durP2;ratioP2;P2;SDS_P1;SDS_P2;PMS_P1;PMS_P2;Temp;Humidity;BMP_temperature;BMP_pressure;BME280_temperature;BME280_humidity;BME280_pressure;Samples;Min_cycle;Max_cycle;Signal;HPM_P1;HPM_P2
2024/03/07 00:01:08;;;;;;;;;;;6.50;1.00;;;;;;5051198;28;19972;-91
2024/03/07 00:03:38;;;;;;;;;;;6.50;1.00;;;;;;5056685;28;19954;-92
2024/03/07 00:06:15;;;;;;;;;;;6.50;1.00;;;;;;5052897;28;20012;-90
2024/03/07 00:08:52;;;;;;;;;;;6.40;1.00;;;;;;5043298;28;19947;-91
2024/03/07 00:11:47;;;;;;;;;;;6.50;1.00;;;;;;5042943;28;19960;-90
2024/03/07 00:17:09;;;;;;;;;;;6.40;1.00;;;;;;5024087;28;20011;-88
2024/03/07 00:22:29;;;;;;;;;;;6.40;1.00;;;;;;5038539;28;19965;-88
2024/03/07 00:25:10;;;;;;;;;;;6.40;1.00;;;;;;5042225;28;19929;-89
2024/03/07 00:27:53;;;;;;;;;;;6.40;1.00;;;;;;5044226;28;19965;-89
2024/03/07 00:30:30;;;;;;;;;;;6.40;1.00;;;;;;5057301;28;19925;-89
2024/03/07 00:32:59;;;;;;;;;;;6.40;1.00;;;;;;5059103;28;19935;-87
2024/03/07 00:35:32;;;;;;;;;;;6.60;1.00;;;;;;5059075;28;19991;-86
2024/03/07 00:41:16;;;;;;;;;;;;;;;;;;;;;
2024/03/07 00:46:53;;;;;;;;;;;6.40;1.00;;;;;;5033216;28;19925;-89
2024/03/07 00:49:20;;;;;;;;;;;6.40;1.00;;;;;;5045211;28;19949;-89
2024/03/07 00:51:50;;;;;;;;;;;6.40;1.00;;;;;;5042952;28;19925;-89
2024/03/07 00:54:17;;;;;;;;;;;6.40;1.00;;;;;;5041947;28;20034;-89
2024/03/07 00:56:52;;;;;;;;;;;6.40;1.00;;;;;;5041624;28;19925;-88
2024/03/07 00:59:40;;;;;;;;;;;6.40;1.00;;;;;;5041868;28;19945;-88
2024/03/07 01:02:22;;;;;;;;;;;6.40;1.00;;;;;;5041569;28;19952;-89
2024/03/07 01:05:09;;;;;;;;;;;6.40;1.00;;;;;;5041505;28;19956;-90
2024/03/07 01:07:45;;;;;;;;;;;6.40;1.00;;;;;;5041942;28;19966;-89
2024/03/07 01:10:15;;;;;;;;;;;6.30;1.00;;;;;;5054850;28;19957;-89
2024/03/07 01:12:44;;;;;;;;;;;6.30;1.00;;;;;;5058130;28;19978;-88
2024/03/07 01:15:16;;;;;;;;;;;6.30;1.00;;;;;;5055088;28;19947;-89
2024/03/07 01:17:58;;;;;;;;;;;6.40;1.00;;;;;;5054297;28;19945;-88
2024/03/07 01:20:40;;;;;;;;;;;6.30;1.00;;;;;;5054594;28;19971;-89
2024/03/07 01:23:49;;;;;;;;;;;6.40;1.00;;;;;;5042906;28;19979;-89
2024/03/07 01:26:56;;;;;;;;;;;6.40;1.00;;;;;;5029282;28;20443;-89
2024/03/07 01:29:46;;;;;;;;;;;6.30;1.00;;;;;;5040487;28;19943;-89
2024/03/07 01:32:49;;;;;;;;;;;;;;;;;;;;;
2024/03/07 01:38:55;;;;;;;;;;;6.20;1.00;;;;;;4997983;28;19949;-87
2024/03/07 01:41:32;;;;;;;;;;;6.10;1.00;;;;;;4985538;28;20048;-89
2024/03/07 01:44:03;;;;;;;;;;;6.10;1.00;;;;;;4982723;28;19966;-89
2024/03/07 01:46:42;;;;;;;;;;;6.20;1.00;;;;;;4979288;28;20038;-89
2024/03/07 01:52:50;;;;;;;;;;;6.00;1.00;;;;;;5032560;28;19975;-89
2024/03/07 01:55:53;;;;;;;;;;;6.00;1.00;;;;;;5032535;28;19950;-89
2024/03/07 02:50:57;;;;;;;;;;;5.60;1.00;;;;;;4872297;29;19986;-89
2024/03/07 02:53:44;;;;;;;;;;;5.50;1.00;;;;;;5021942;28;19985;-89
2024/03/07 03:05:55;;;;;;;;;;;5.60;1.00;;;;;;4940461;29;19926;-89
2024/03/07 03:15:27;;;;;;;;;;;5.30;1.00;;;;;;4879483;29;19991;-89
2024/03/07 03:24:37;;;;;;;;;;;5.20;1.00;;;;;;4890057;29;19952;-89
2024/03/07 04:17:23;;;;;;;;;;;4.60;1.00;;;;;;4941484;29;19945;-89
2024/03/07 04:38:44;;;;;;;;;;;4.30;1.00;;;;;;4960147;28;19948;-89
2024/03/07 04:53:31;;;;;;;;;;;4.20;1.00;;;;;;4939438;29;20500;-89
2024/03/07 04:56:05;;;;;;;;;;;4.20;1.00;;;;;;5011285;28;19951;-89
2024/03/07 04:58:34;;;;;;;;;;;4.20;1.00;;;;;;5020816;28;19946;-89
2024/03/07 05:03:57;;;;;;;;;;;4.20;1.00;;;;;;5011407;28;19952;-88
2024/03/07 05:06:49;;;;;;;;;;;;;;;;;;;;;
2024/03/07 05:15:32;;;;;;;;;;;4.00;1.00;;;;;;4978990;28;19998;-89
2024/03/07 05:33:21;;;;;;;;;;;;;;;;;;;;;
2024/03/07 05:48:10;;;;;;;;;;;4.00;1.00;;;;;;4962772;28;19944;-89
2024/03/07 06:03:16;;;;;;;;;;;3.80;1.00;;;;;;4998777;28;19986;-88
2024/03/07 06:05:55;;;;;;;;;;;3.80;1.00;;;;;;5000570;28;19944;-88
2024/03/07 06:08:28;;;;;;;;;;;3.70;1.00;;;;;;5037356;28;19943;-88
2024/03/07 06:20:22;;;;;;;;;;;3.60;99.90;;;;;;4983277;28;20068;-89
2024/03/07 06:23:29;;;;;;;;;;;3.60;99.90;;;;;;5044590;28;19961;-89
2024/03/07 06:26:12;;;;;;;;;;;3.60;99.90;;;;;;5048379;28;19944;-89
2024/03/07 06:31:36;;;;;;;;;;;3.70;99.90;;;;;;5087096;23;19947;-89
2024/03/07 06:34:20;;;;;;;;;;;3.60;99.90;;;;;;5080981;28;19936;-90
2024/03/07 06:37:12;;;;;;;;;;;3.60;1.00;;;;;;5081457;28;19965;-90
2024/03/07 06:39:44;;;;;;;;;;;3.60;1.00;;;;;;5080970;28;19945;-88
2024/03/07 06:55:37;;;;;;;;;;;;;;;;;;;;;
2024/03/07 07:16:45;;;;;;;;;;;3.70;70.10;;;;;;5011493;22;19971;-88
2024/03/07 07:19:12;;;;;;;;;;;3.80;19.80;;;;;;5055790;28;19942;-88
2024/03/07 07:21:39;;;;;;;;;;;3.80;1.00;;;;;;5046559;28;20362;-89
2024/03/07 07:24:06;;;;;;;;;;;3.80;99.90;;;;;;5043593;28;20018;-89
2024/03/07 07:26:33;;;;;;;;;;;3.80;99.90;;;;;;5041836;28;19983;-87
2024/03/07 07:29:04;;;;;;;;;;;3.80;99.90;;;;;;5042043;28;19951;-88
2024/03/07 07:31:32;;;;;;;;;;;3.90;50.50;;;;;;5043835;28;19940;-88
2024/03/07 07:34:00;;;;;;;;;;;3.90;10.80;;;;;;5058601;28;19936;-88
2024/03/07 07:36:27;;;;;;;;;;;4.00;1.00;;;;;;5050017;28;19963;-89
2024/03/07 07:38:54;;;;;;;;;;;3.90;1.00;;;;;;5043352;28;20324;-88
2024/03/07 07:41:21;;;;;;;;;;;4.00;1.00;;;;;;5043021;28;19952;-88
2024/03/07 07:43:50;;;;;;;;;;;4.00;99.90;;;;;;5051848;28;19976;-88
2024/03/07 07:46:17;;;;;;;;;;;4.00;99.90;;;;;;5045594;28;20483;-88
2024/03/07 07:48:44;;;;;;;;;;;4.10;99.90;;;;;;5047962;28;20331;-88
2024/03/07 07:51:12;;;;;;;;;;;4.20;14.20;;;;;;5054618;28;19942;-88
2024/03/07 07:53:39;;;;;;;;;;;4.10;1.00;;;;;;5058873;28;19951;-88
2024/03/07 07:56:06;;;;;;;;;;;4.20;1.00;;;;;;5058022;28;19953;-88
2024/03/07 07:58:34;;;;;;;;;;;4.20;1.00;;;;;;5051649;28;19949;-88
2024/03/07 08:01:02;;;;;;;;;;;4.10;1.00;;;;;;5051124;28;19951;-88
2024/03/07 08:03:29;;;;;;;;;;;4.20;1.00;;;;;;5048704;28;20013;-89
2024/03/07 08:05:56;;;;;;;;;;;4.20;1.00;;;;;;5046103;28;19964;-88
2024/03/07 08:08:24;;;;;;;;;;;4.30;1.00;;;;;;5046411;28;19946;-87
2024/03/07 08:10:51;;;;;;;;;;;4.40;1.00;;;;;;5042598;28;19947;-88
2024/03/07 08:13:18;;;;;;;;;;;4.30;99.90;;;;;;5041952;28;20005;-88
2024/03/07 08:15:45;;;;;;;;;;;4.40;1.00;;;;;;5042379;28;19974;-89
2024/03/07 08:18:11;;;;;;;;;;;4.50;99.90;;;;;;5043665;28;19950;-87
2024/03/07 08:20:38;;;;;;;;;;;4.60;99.90;;;;;;5058625;28;19942;-88
2024/03/07 08:23:05;;;;;;;;;;;4.60;99.90;;;;;;5058891;28;19942;-86
2024/03/07 08:25:33;;;;;;;;;;;4.60;99.90;;;;;;5052034;28;19926;-88
2024/03/07 08:28:01;;;;;;;;;;;4.50;99.90;;;;;;5046305;28;19976;-90
2024/03/07 08:30:34;;;;;;;;;;;4.50;99.90;;;;;;5051249;28;19978;-90
2024/03/07 08:33:04;;;;;;;;;;;4.60;99.90;;;;;;5043715;28;19974;-88
2024/03/07 08:35:31;;;;;;;;;;;4.60;99.90;;;;;;5055411;28;20006;-89
2024/03/07 08:38:00;;;;;;;;;;;4.60;99.90;;;;;;5043803;28;19948;-90
2024/03/07 08:40:30;;;;;;;;;;;4.70;99.90;;;;;;5047033;28;19965;-90
2024/03/07 08:42:59;;;;;;;;;;;4.90;99.90;;;;;;5044640;28;19963;-89
2024/03/07 08:45:26;;;;;;;;;;;5.00;89.00;;;;;;5041585;28;19947;-91
2024/03/07 08:47:55;;;;;;;;;;;5.00;53.50;;;;;;5040462;28;20097;-80
2024/03/07 08:50:21;;;;;;;;;;;5.00;47.90;;;;;;5040840;28;20039;-81
2024/03/07 08:52:49;;;;;;;;;;;5.10;89.10;;;;;;5040527;28;19969;-81
2024/03/07 08:55:16;;;;;;;;;;;5.20;8.20;;;;;;5038804;28;19969;-81
2024/03/07 08:57:45;;;;;;;;;;;5.20;14.60;;;;;;5039176;28;20451;-81
2024/03/07 09:00:22;;;;;;;;;;;5.20;1.00;;;;;;5040936;28;20010;-81
2024/03/07 09:02:50;;;;;;;;;;;5.30;1.00;;;;;;5042733;28;20415;-81
2024/03/07 09:05:17;;;;;;;;;;;5.30;1.00;;;;;;5038462;28;19949;-81
2024/03/07 09:07:44;;;;;;;;;;;5.40;1.00;;;;;;5039003;28;19956;-83
2024/03/07 09:10:11;;;;;;;;;;;5.40;1.00;;;;;;5040935;28;20405;-81
2024/03/07 09:12:38;;;;;;;;;;;5.50;1.00;;;;;;5039102;28;20318;-84
2024/03/07 09:15:05;;;;;;;;;;;5.60;1.00;;;;;;5055912;28;19943;-82
2024/03/07 09:17:33;;;;;;;;;;;5.60;1.00;;;;;;5049760;28;19971;-83
2024/03/07 09:20:00;;;;;;;;;;;5.70;1.00;;;;;;5046474;28;19948;-83
2024/03/07 09:22:29;;;;;;;;;;;5.70;1.00;;;;;;5045366;28;20026;-83
2024/03/07 09:24:56;;;;;;;;;;;5.70;1.00;;;;;;5044689;28;19949;-83
2024/03/07 09:27:22;;;;;;;;;;;5.80;1.00;;;;;;5044790;28;20301;-84
2024/03/07 09:29:49;;;;;;;;;;;5.90;1.00;;;;;;5048790;28;20074;-84
2024/03/07 09:32:16;;;;;;;;;;;5.90;1.00;;;;;;5052669;28;19955;-84
2024/03/07 09:34:46;;;;;;;;;;;5.90;1.00;;;;;;5047011;28;20142;-83
2024/03/07 09:37:13;;;;;;;;;;;6.00;1.00;;;;;;5043801;28;19969;-83
2024/03/07 09:39:39;;;;;;;;;;;6.00;1.00;;;;;;5044875;28;19947;-83
2024/03/07 09:42:09;;;;;;;;;;;6.10;1.00;;;;;;5045466;28;20039;-83
2024/03/07 09:44:39;;;;;;;;;;;6.20;1.00;;;;;;5047879;28;19964;-83
2024/03/07 09:47:06;;;;;;;;;;;6.20;1.00;;;;;;5055790;28;19965;-83
2024/03/07 09:49:34;;;;;;;;;;;6.40;1.00;;;;;;5056470;28;19942;-83
2024/03/07 09:52:04;;;;;;;;;;;6.40;1.00;;;;;;5055417;28;19943;-83
2024/03/07 09:54:31;;;;;;;;;;;6.50;1.00;;;;;;5054228;28;19962;-83
2024/03/07 09:56:59;;;;;;;;;;;6.40;1.00;;;;;;5052363;28;20016;-83
2024/03/07 09:59:27;;;;;;;;;;;6.50;1.00;;;;;;5050111;28;19944;-84
2024/03/07 10:01:55;;;;;;;;;;;6.40;1.00;;;;;;5048229;28;19944;-84
2024/03/07 10:04:27;;;;;;;;;;;6.50;1.00;;;;;;5046660;28;20002;-82
2024/03/07 10:06:55;;;;;;;;;;;6.40;1.00;;;;;;5045612;28;19965;-83
2024/03/07 10:09:23;;;;;;;;;;;6.40;1.00;;;;;;5049562;28;19986;-83
2024/03/07 10:11:56;;;;;;;;;;;6.50;1.00;;;;;;5049636;28;19945;-84
2024/03/07 10:14:23;;;;;;;;;;;6.60;99.90;;;;;;5050456;28;19943;-84
2024/03/07 10:16:50;;;;;;;;;;;6.50;99.90;;;;;;5059023;28;20003;-83
2024/03/07 10:19:16;;;;;;;;;;;6.60;99.90;;;;;;5059269;28;19925;-83
2024/03/07 10:21:43;;;;;;;;;;;6.80;99.90;;;;;;5053497;28;19982;-84
2024/03/07 10:24:11;;;;;;;;;;;6.70;99.90;;;;;;5045131;28;19985;-84
2024/03/07 10:26:39;;;;;;;;;;;6.90;99.90;;;;;;5043225;28;20018;-84
2024/03/07 10:29:07;;;;;;;;;;;7.00;99.90;;;;;;5026807;28;19943;-84
2024/03/07 10:31:36;;;;;;;;;;;7.00;99.90;;;;;;5044020;28;20293;-84
2024/03/07 10:34:04;;;;;;;;;;;7.00;99.90;;;;;;5043974;28;19945;-84
2024/03/07 10:36:31;;;;;;;;;;;7.00;99.90;;;;;;5044034;28;19972;-83
2024/03/07 10:39:11;;;;;;;;;;;7.10;99.90;;;;;;5050446;28;20008;-83
2024/03/07 10:41:43;;;;;;;;;;;7.10;99.90;;;;;;5043555;28;19954;-84
2024/03/07 10:44:13;;;;;;;;;;;7.00;99.90;;;;;;5043499;28;20431;-84
2024/03/07 10:46:40;;;;;;;;;;;7.10;99.90;;;;;;5042793;28;19983;-83
2024/03/07 10:49:09;;;;;;;;;;;7.10;99.90;;;;;;5042649;28;19944;-84
2024/03/07 10:51:45;;;;;;;;;;;7.10;99.90;;;;;;5043740;28;19946;-84
2024/03/07 10:54:20;;;;;;;;;;;7.10;99.90;;;;;;5044540;28;19947;-83
2024/03/07 10:56:55;;;;;;;;;;;7.10;99.90;;;;;;5043861;28;19959;-83
2024/03/07 10:59:26;;;;;;;;;;;7.00;99.90;;;;;;5045403;28;20377;-84
2024/03/07 11:01:58;;;;;;;;;;;7.00;99.90;;;;;;5053707;28;19946;-83
2024/03/07 11:04:25;;;;;;;;;;;7.00;99.90;;;;;;5057075;28;19965;-83
2024/03/07 11:06:52;;;;;;;;;;;7.10;99.90;;;;;;5058361;28;19974;-82
2024/03/07 11:09:23;;;;;;;;;;;7.20;99.90;;;;;;5053435;28;19954;-84
2024/03/07 11:11:52;;;;;;;;;;;7.10;99.90;;;;;;5054242;28;19941;-83
2024/03/07 11:14:19;;;;;;;;;;;7.00;99.90;;;;;;5046824;28;19988;-82
2024/03/07 11:16:46;;;;;;;;;;;7.10;99.90;;;;;;5042739;28;19972;-83
2024/03/07 11:19:27;;;;;;;;;;;7.00;99.90;;;;;;5043219;28;19944;-83
2024/03/07 11:21:54;;;;;;;;;;;7.10;99.90;;;;;;5042112;28;19977;-83
2024/03/07 11:24:25;;;;;;;;;;;7.10;99.90;;;;;;5041832;28;19964;-83
2024/03/07 11:26:54;;;;;;;;;;;7.10;99.90;;;;;;5049573;28;19973;-83
2024/03/07 11:29:42;;;;;;;;;;;7.10;99.90;;;;;;5059288;28;19961;-83
2024/03/07 11:32:10;;;;;;;;;;;7.10;99.90;;;;;;5043349;28;20291;-84
2024/03/07 11:34:39;;;;;;;;;;;7.20;99.90;;;;;;5041250;28;19952;-84
2024/03/07 11:37:07;;;;;;;;;;;7.10;99.90;;;;;;5040155;28;20049;-84
2024/03/07 11:39:41;;;;;;;;;;;7.20;99.90;;;;;;5040747;28;19950;-84
2024/03/07 11:42:09;;;;;;;;;;;7.50;99.90;;;;;;5041145;28;19945;-83
2024/03/07 11:44:39;;;;;;;;;;;7.40;99.90;;;;;;5042717;28;19955;-83
2024/03/07 11:47:09;;;;;;;;;;;7.40;99.90;;;;;;5043158;28;19974;-83
2024/03/07 11:49:36;;;;;;;;;;;7.50;99.90;;;;;;5041462;28;20359;-83
2024/03/07 11:52:04;;;;;;;;;;;7.50;99.90;;;;;;5046276;28;20001;-83
2024/03/07 11:54:32;;;;;;;;;;;7.50;99.90;;;;;;5047510;28;19975;-84
2024/03/07 11:56:59;;;;;;;;;;;7.40;99.90;;;;;;5044262;28;20404;-83
2024/03/07 11:59:32;;;;;;;;;;;7.50;99.90;;;;;;5045723;28;19986;-84
2024/03/07 12:02:01;;;;;;;;;;;7.40;99.90;;;;;;5049440;28;19949;-83
2024/03/07 12:04:27;;;;;;;;;;;7.40;99.90;;;;;;5047317;28;20018;-83
2024/03/07 12:06:54;;;;;;;;;;;7.40;99.90;;;;;;5049647;28;19961;-83
2024/03/07 12:09:24;;;;;;;;;;;7.40;99.90;;;;;;5055043;28;19952;-83
2024/03/07 12:11:52;;;;;;;;;;;7.40;99.90;;;;;;5057160;28;19952;-82
2024/03/07 12:14:19;;;;;;;;;;;7.60;99.90;;;;;;5054577;28;19943;-83
2024/03/07 12:16:48;;;;;;;;;;;7.70;99.90;;;;;;5053389;28;19965;-82
2024/03/07 12:19:17;;;;;;;;;;;7.60;99.90;;;;;;5052179;28;19948;-83
2024/03/07 12:21:44;;;;;;;;;;;7.50;99.90;;;;;;5049725;28;19956;-83
2024/03/07 12:24:15;;;;;;;;;;;7.60;99.90;;;;;;5046375;28;19962;-83
2024/03/07 12:26:42;;;;;;;;;;;7.60;99.90;;;;;;5046424;28;19986;-84
2024/03/07 12:29:11;;;;;;;;;;;7.60;99.90;;;;;;5045679;28;19959;-84
2024/03/07 12:31:38;;;;;;;;;;;7.70;99.90;;;;;;5044565;28;19954;-83
2024/03/07 12:34:09;;;;;;;;;;;7.70;99.90;;;;;;5044878;28;19994;-85
2024/03/07 12:36:45;;;;;;;;;;;7.70;99.90;;;;;;5046483;28;20057;-84
2024/03/07 12:39:25;;;;;;;;;;;7.70;99.90;;;;;;5045806;28;20439;-84
2024/03/07 12:41:54;;;;;;;;;;;7.70;99.90;;;;;;5046032;28;19943;-85
2024/03/07 12:44:20;;;;;;;;;;;7.80;99.90;;;;;;5044804;28;19972;-84
2024/03/07 12:46:47;;;;;;;;;;;7.80;99.90;;;;;;5048260;28;19962;-85
2024/03/07 12:49:16;;;;;;;;;;;7.90;99.90;;;;;;5044391;28;20010;-84
2024/03/07 12:51:43;;;;;;;;;;;7.80;99.90;;;;;;5045631;28;19946;-84
2024/03/07 12:54:10;;;;;;;;;;;7.70;99.90;;;;;;5047303;28;20305;-84
2024/03/07 12:56:37;;;;;;;;;;;7.70;99.90;;;;;;5046208;28;19967;-84
2024/03/07 12:59:04;;;;;;;;;;;7.70;99.90;;;;;;5044519;28;19950;-84
2024/03/07 13:01:33;;;;;;;;;;;7.70;99.90;;;;;;5054487;28;20263;-83
2024/03/07 13:04:00;;;;;;;;;;;7.70;99.90;;;;;;5044785;28;20490;-85
2024/03/07 13:06:29;;;;;;;;;;;7.90;99.90;;;;;;5045688;28;20011;-84
2024/03/07 13:08:57;;;;;;;;;;;7.80;99.90;;;;;;5045943;28;19958;-84
2024/03/07 13:11:27;;;;;;;;;;;7.70;99.90;;;;;;5051797;28;19957;-84
2024/03/07 13:13:55;;;;;;;;;;;7.80;99.90;;;;;;5048955;28;19966;-84
2024/03/07 13:16:21;;;;;;;;;;;7.80;99.90;;;;;;5061292;22;19953;-83
2024/03/07 13:18:48;;;;;;;;;;;7.80;99.90;;;;;;5058831;28;19995;-83
2024/03/07 13:21:17;;;;;;;;;;;7.80;99.90;;;;;;5058701;28;19938;-85
2024/03/07 13:23:45;;;;;;;;;;;7.80;99.90;;;;;;5058180;28;19927;-85
2024/03/07 13:26:16;;;;;;;;;;;7.70;99.90;;;;;;5053194;28;19970;-84
2024/03/07 13:28:44;;;;;;;;;;;7.80;99.90;;;;;;5051131;28;19957;-85
2024/03/07 13:31:11;;;;;;;;;;;7.80;99.90;;;;;;5046565;28;19984;-85
2024/03/07 13:33:38;;;;;;;;;;;7.90;99.90;;;;;;5049218;28;19949;-85
2024/03/07 13:36:07;;;;;;;;;;;8.00;99.90;;;;;;5054036;28;19946;-84
2024/03/07 13:38:34;;;;;;;;;;;8.00;99.90;;;;;;5047327;28;19933;-85
2024/03/07 13:41:04;;;;;;;;;;;7.90;99.90;;;;;;5053943;28;19953;-84
2024/03/07 13:43:30;;;;;;;;;;;8.10;99.90;;;;;;5054062;28;20008;-85
2024/03/07 13:45:57;;;;;;;;;;;7.90;99.90;;;;;;5049132;28;20012;-85
2024/03/07 13:48:24;;;;;;;;;;;7.90;99.90;;;;;;5047869;28;19944;-84
2024/03/07 13:50:52;;;;;;;;;;;7.80;99.90;;;;;;5047883;28;19943;-86
2024/03/07 13:53:29;;;;;;;;;;;7.80;99.90;;;;;;5046970;28;19947;-84
2024/03/07 13:56:01;;;;;;;;;;;7.90;99.90;;;;;;5046018;28;19970;-85
2024/03/07 13:58:40;;;;;;;;;;;7.90;99.90;;;;;;5055593;28;19965;-85
2024/03/07 14:01:23;;;;;;;;;;;7.90;99.90;;;;;;5056941;28;19939;-84
2024/03/07 14:04:17;;;;;;;;;;;7.90;99.90;;;;;;5060397;28;20442;-85
2024/03/07 14:06:50;;;;;;;;;;;7.90;99.90;;;;;;5056967;28;19964;-84
2024/03/07 14:09:44;;;;;;;;;;;7.90;99.90;;;;;;5054371;28;19945;-84
2024/03/07 14:12:26;;;;;;;;;;;7.90;99.90;;;;;;5050302;28;19983;-85
2024/03/07 14:15:19;;;;;;;;;;;7.90;99.90;;;;;;5049481;28;19941;-84
2024/03/07 14:18:01;;;;;;;;;;;7.90;99.90;;;;;;5050036;28;19988;-84
2024/03/07 14:20:45;;;;;;;;;;;7.90;99.90;;;;;;5050251;28;20441;-84
2024/03/07 14:23:19;;;;;;;;;;;8.00;99.90;;;;;;5050081;28;19944;-84
2024/03/07 14:26:02;;;;;;;;;;;8.10;99.90;;;;;;5050315;28;19996;-85
2024/03/07 14:28:46;;;;;;;;;;;8.10;99.90;;;;;;5050420;28;19942;-85
2024/03/07 14:31:12;;;;;;;;;;;8.20;99.90;;;;;;5049313;28;20029;-86
2024/03/07 14:33:55;;;;;;;;;;;8.20;99.90;;;;;;5051499;28;19932;-86
2024/03/07 14:36:32;;;;;;;;;;;8.20;99.90;;;;;;5051050;28;20029;-84
2024/03/07 14:38:59;;;;;;;;;;;8.20;99.90;;;;;;5042667;28;19939;-79
2024/03/07 14:41:41;;;;;;;;;;;8.10;99.90;;;;;;5043253;28;19951;-82
2024/03/07 14:44:08;;;;;;;;;;;7.90;99.90;;;;;;5045351;28;20004;-81
2024/03/07 14:46:35;;;;;;;;;;;7.90;99.90;;;;;;5045463;28;20459;-78
2024/03/07 14:49:04;;;;;;;;;;;8.00;99.90;;;;;;5044604;28;20020;-80
2024/03/07 14:51:31;;;;;;;;;;;8.00;99.90;;;;;;5045873;28;19958;-79
2024/03/07 14:53:58;;;;;;;;;;;7.90;99.90;;;;;;5054745;28;19946;-79
2024/03/07 14:56:25;;;;;;;;;;;8.00;99.90;;;;;;5055708;28;19963;-85
2024/03/07 14:58:52;;;;;;;;;;;7.90;99.90;;;;;;5058030;28;19953;-83
2024/03/07 15:01:19;;;;;;;;;;;7.90;99.90;;;;;;5057577;28;19948;-85
2024/03/07 15:03:46;;;;;;;;;;;7.90;99.90;;;;;;5051875;28;19958;-85
2024/03/07 15:06:15;;;;;;;;;;;7.90;99.90;;;;;;5050729;28;20036;-85
2024/03/07 15:08:42;;;;;;;;;;;7.80;99.90;;;;;;5048467;28;19969;-84
2024/03/07 15:11:16;;;;;;;;;;;7.80;99.90;;;;;;5048168;28;19946;-84
2024/03/07 15:13:45;;;;;;;;;;;7.80;99.90;;;;;;5047567;28;19940;-85
2024/03/07 15:16:12;;;;;;;;;;;7.80;99.90;;;;;;5047264;28;19985;-85
2024/03/07 15:18:39;;;;;;;;;;;7.80;99.90;;;;;;5049612;28;20395;-86
